Time;durP1;ratioP1;P1;durP2;ratioP2;P2;SDS_P1;SDS_P2;PMS_P1;PMS_P2;Temp;Humidity;BMP_temperature;BMP_pressure;BME280_temperature;BME280_humidity;BME280_pressure;Samples;Min_cycle;Max_cycle;Signal;HPM_P1;HPM_P2
2022/02/01 00:02:06;;;;;;;10.30;5.00;;;;;;;-1.07;75.04;98122.37;104873;1274;139411;-60
2022/02/01 00:04:55;;;;;;;13.30;5.40;;;;;;;-1.06;75.11;98123.02;104872;1274;22553;-60
2022/02/01 00:07:54;;;;;;;15.80;5.60;;;;;;;-1.07;75.20;98119.70;104948;1274;26169;-61
2022/02/01 00:10:23;;;;;;;8.80;4.40;;;;;;;-1.08;75.15;98122.49;104779;1274;138954;-60
2022/02/01 00:36:53;;;;;;;9.60;4.00;;;;;;;-1.12;74.80;98133.30;109288;1274;22452;-60
2022/02/01 00:39:29;;;;;;;11.20;3.80;;;;;;;-1.11;74.87;98133.33;109148;1274;137368;-60
2022/02/01 00:41:57;;;;;;;10.20;4.30;;;;;;;-1.10;74.82;98141.34;109296;1274;23215;-60
2022/02/01 00:44:25;;;;;;;9.90;3.70;;;;;;;-1.10;74.73;98144.87;109194;1274;138149;-60
2022/02/01 00:46:53;;;;;;;12.70;4.70;;;;;;;-1.09;74.53;98147.27;109267;1274;22472;-61
2022/02/01 00:49:21;;;;;;;9.00;4.30;;;;;;;-1.09;74.47;98151.33;109301;1274;22286;-60
2022/02/01 00:51:49;;;;;;;13.40;5.80;;;;;;;-1.09;74.47;98149.98;109125;1274;138596;-60
2022/02/01 00:54:17;;;;;;;16.20;5.80;;;;;;;-1.10;74.52;98147.17;109260;1274;22486;-61
2022/02/01 00:56:45;;;;;;;15.70;5.80;;;;;;;-1.10;74.43;98146.85;109133;1274;137764;-61
2022/02/01 00:59:13;;;;;;;10.90;5.00;;;;;;;-1.10;74.33;98147.34;109228;1274;22433;-61
2022/02/01 01:01:41;;;;;;;16.10;5.70;;;;;;;-1.10;74.33;98151.49;109292;1274;23145;-60
2022/02/01 01:04:10;;;;;;;8.70;4.70;;;;;;;-1.10;74.28;98152.07;109123;1274;138753;-60
2022/02/01 01:06:38;;;;;;;14.10;4.80;;;;;;;-1.10;74.45;98150.02;109288;1274;22507;-61
2022/02/01 01:09:06;;;;;;;14.30;5.40;;;;;;;-1.11;74.33;98145.09;109171;1274;139225;-60
2022/02/01 01:11:34;;;;;;;11.00;4.00;;;;;;;-1.07;74.42;98150.05;109239;1274;23589;-60
2022/02/01 01:16:58;;;;;;;11.90;4.20;;;;;;;-1.06;74.29;98146.83;109236;1274;22383;-60
2022/02/01 01:38:56;;;;;;;9.10;4.00;;;;;;;-1.07;74.21;98148.39;109243;1274;22469;-60
2022/02/01 01:44:58;;;;;;;9.80;4.30;;;;;;;-1.09;74.48;98157.09;108288;1282;138244;-59
2022/02/01 01:53:19;;;;;;;10.50;4.20;;;;;;;-1.08;74.20;98170.85;108329;1282;22498;-58
2022/02/01 01:55:50;;;;;;;16.50;5.50;;;;;;;-1.11;74.35;98174.66;108415;1282;22472;-59
2022/02/01 01:58:20;;;;;;;11.90;5.40;;;;;;;-1.09;74.02;98174.73;108333;1282;138355;-59
2022/02/01 02:01:11;;;;;;;11.10;4.90;;;;;;;-1.09;74.14;98178.96;108377;1282;22406;-59
2022/02/01 02:03:44;;;;;;;8.50;4.20;;;;;;;-1.09;74.43;98179.90;108305;1282;139695;-58
2022/02/01 02:06:14;;;;;;;11.60;5.30;;;;;;;-1.11;74.31;98179.05;108400;1282;23594;-58
2022/02/01 02:08:46;;;;;;;14.00;5.50;;;;;;;-1.13;74.18;98183.05;108332;1282;138102;-59
2022/02/01 02:11:20;;;;;;;18.60;5.60;;;;;;;-1.12;74.31;98184.98;109029;1274;22465;-58
2022/02/01 02:16:37;;;;;;;12.20;4.70;;;;;;;-1.11;74.30;98183.91;109227;1274;139449;-58
2022/02/01 02:19:05;;;;;;;15.50;5.50;;;;;;;-1.12;74.31;98184.31;109269;1274;22456;-57
2022/02/01 02:21:33;;;;;;;15.00;5.10;;;;;;;-1.10;74.36;98183.61;109179;1274;139449;-57
2022/02/01 02:24:01;;;;;;;12.50;5.10;;;;;;;-1.09;74.14;98182.04;109257;1274;26403;-60
2022/02/01 02:26:29;;;;;;;21.40;7.00;;;;;;;-1.09;74.28;98183.35;109178;1274;138321;-57
2022/02/01 02:28:59;;;;;;;11.00;5.60;;;;;;;-1.07;74.36;98177.34;109206;1274;22512;-58
2022/02/01 02:31:27;;;;;;;9.70;5.40;;;;;;;-1.09;74.18;98178.96;109286;1274;22493;-60
2022/02/01 02:34:02;;;;;;;11.70;4.90;;;;;;;-1.06;74.11;98184.83;109124;1274;137919;-60
2022/02/01 02:36:32;;;;;;;12.20;4.70;;;;;;;-1.05;74.26;98191.69;109182;1274;22556;-60
2022/02/01 02:39:09;;;;;;;13.00;5.30;;;;;;;-1.06;74.17;98193.01;109147;1274;138540;-58
2022/02/01 02:41:49;;;;;;;10.90;5.50;;;;;;;-1.07;73.99;98196.71;109311;1274;22455;-58
2022/02/01 02:47:04;;;;;;;10.90;4.80;;;;;;;-1.12;73.68;98200.92;109194;1275;23166;-60
2022/02/01 02:49:32;;;;;;;11.90;4.60;;;;;;;-1.13;73.64;98203.77;109255;1274;23252;-59
2022/02/01 02:52:00;;;;;;;11.50;4.10;;;;;;;-1.13;73.68;98207.34;109170;1274;138911;-60
2022/02/01 02:54:29;;;;;;;12.50;4.70;;;;;;;-1.15;73.75;98208.42;109255;1274;23320;-61
2022/02/01 02:57:03;;;;;;;13.30;4.50;;;;;;;-1.15;73.65;98207.27;109064;1274;138315;-60
2022/02/01 02:59:31;;;;;;;11.60;4.60;;;;;;;-1.15;73.80;98206.16;109328;1274;22431;-60
2022/02/01 03:02:00;;;;;;;12.70;4.50;;;;;;;-1.14;73.59;98206.57;109298;1274;22415;-58
2022/02/01 03:04:29;;;;;;;13.20;5.00;;;;;;;-1.14;73.72;98206.41;109193;1274;137894;-58
2022/02/01 03:06:58;;;;;;;11.20;5.50;;;;;;;-1.12;73.53;98210.42;109330;1274;22594;-58
2022/02/01 03:09:26;;;;;;;9.90;5.40;;;;;;;-1.11;73.75;98214.57;109153;1274;138651;-57
2022/02/01 03:12:00;;;;;;;14.40;5.30;;;;;;;-1.11;73.43;98218.84;109284;1274;23287;-57
2022/02/01 03:19:46;;;;;;;7.80;4.10;;;;;;;-1.13;73.58;98225.84;109217;1274;22401;-57
2022/02/01 03:20:10;;;;;;;10.70;3.70;;;;;;;-1.15;73.42;98228.41;109239;1274;22440;-59
2022/02/01 03:22:38;;;;;;;13.60;4.60;;;;;;;-1.16;73.53;98228.69;109092;1274;136995;-60
2022/02/01 03:27:04;;;;;;;11.30;3.60;;;;;;;-1.19;73.37;98228.86;101646;1311;544951;-58
2022/02/01 03:29:32;;;;;;;9.40;3.60;;;;;;;-1.22;73.13;98230.55;103828;1287;25431;-58
2022/02/01 03:32:00;;;;;;;13.50;4.50;;;;;;;-1.22;73.37;98231.42;103922;1287;22601;-58
2022/02/01 03:34:29;;;;;;;9.70;3.30;;;;;;;-1.22;73.41;98233.27;108022;1286;137223;-58
2022/02/01 03:36:57;;;;;;;8.60;4.00;;;;;;;-1.22;73.57;98235.33;108179;1286;22845;-59
2022/02/01 03:39:25;;;;;;;13.20;5.50;;;;;;;-1.22;73.39;98235.73;107346;1287;139163;-59
2022/02/01 03:41:53;;;;;;;7.90;4.10;;;;;;;-1.22;73.48;98234.18;103778;1286;139217;-58
2022/02/01 03:44:21;;;;;;;11.30;3.90;;;;;;;-1.23;73.47;98232.61;103857;1286;137421;-58
2022/02/01 03:47:07;;;;;;;12.00;4.70;;;;;;;-1.24;73.58;98234.19;103887;1287;23990;-57
2022/02/01 03:49:40;;;;;;;10.70;4.70;;;;;;;-1.24;73.62;98238.91;103977;1286;24315;-58
2022/02/01 03:52:09;;;;;;;10.80;4.30;;;;;;;-1.26;73.52;98237.15;103928;1286;137061;-57
2022/02/01 03:54:37;;;;;;;12.60;4.30;;;;;;;-1.28;73.52;98234.45;103944;1287;22562;-58
2022/02/01 03:57:06;;;;;;;8.70;3.70;;;;;;;-1.31;73.57;98236.54;103779;1287;138415;-58
2022/02/01 03:59:34;;;;;;;10.40;4.90;;;;;;;-1.34;73.77;98242.30;108215;1286;22483;-58
2022/02/01 04:02:03;;;;;;;7.80;4.10;;;;;;;-1.37;73.98;98245.52;108290;1286;22460;-58
2022/02/01 04:04:32;;;;;;;12.10;4.60;;;;;;;-1.40;73.78;98248.19;108063;1286;136603;-58
2022/02/01 04:07:00;;;;;;;10.30;4.70;;;;;;;-1.43;73.91;98245.04;108201;1286;22464;-58
2022/02/01 04:09:29;;;;;;;9.40;4.60;;;;;;;-1.46;73.88;98247.83;108106;1286;139756;-58
2022/02/01 04:11:58;;;;;;;15.90;4.50;;;;;;;-1.47;73.93;98256.70;108164;1286;22463;-57
2022/02/01 04:14:29;;;;;;;16.80;5.90;;;;;;;-1.49;74.27;98250.84;108133;1286;139072;-57
2022/02/01 04:16:59;;;;;;;14.50;4.70;;;;;;;-1.48;74.24;98255.19;108244;1286;22527;-59
2022/02/01 04:19:28;;;;;;;11.20;4.40;;;;;;;-1.47;74.23;98260.08;108258;1286;22413;-60
2022/02/01 04:22:01;;;;;;;9.20;3.70;;;;;;;-1.46;74.13;98261.92;108157;1286;138499;-60
2022/02/01 04:24:52;;;;;;;10.00;4.00;;;;;;;-1.45;74.57;98261.97;108216;1286;22459;-59
2022/02/01 04:27:32;;;;;;;10.30;4.90;;;;;;;-1.45;74.55;98262.20;108138;1286;138832;-60
2022/02/01 04:30:07;;;;;;;12.20;5.10;;;;;;;-1.46;74.57;98258.13;108215;1286;22468;-60
2022/02/01 04:32:35;;;;;;;11.40;4.40;;;;;;;-1.43;74.60;98266.45;108123;1286;137167;-60
2022/02/01 04:35:06;;;;;;;12.00;5.00;;;;;;;-1.44;74.41;98268.89;108226;1286;22509;-60
2022/02/01 04:37:35;;;;;;;12.00;4.60;;;;;;;-1.45;74.55;98275.27;108212;1286;22442;-60
2022/02/01 04:40:04;;;;;;;13.60;5.30;;;;;;;-1.47;74.36;98275.16;108128;1286;137315;-58
2022/02/01 04:42:36;;;;;;;14.90;4.50;;;;;;;-1.48;74.60;98275.16;108198;1286;23289;-57
2022/02/01 04:45:19;;;;;;;11.50;4.60;;;;;;;-1.51;74.59;98276.07;108431;1283;139049;-57
2022/02/01 04:47:48;;;;;;;16.50;5.70;;;;;;;-1.53;74.65;98275.86;108501;1283;22443;-58
2022/02/01 04:50:18;;;;;;;13.40;4.80;;;;;;;-1.55;74.66;98276.45;108380;1283;139378;-57
2022/02/01 04:52:49;;;;;;;11.20;5.10;;;;;;;-1.57;74.59;98276.45;108556;1283;22407;-60
2022/02/01 04:55:17;;;;;;;12.90;5.10;;;;;;;-1.60;74.63;98280.58;108436;1283;23249;-57
2022/02/01 04:57:55;;;;;;;9.10;4.70;;;;;;;-1.61;74.76;98282.28;109157;1274;139185;-57
2022/02/01 05:00:28;;;;;;;13.20;4.60;;;;;;;-1.62;74.72;98287.13;109275;1275;22510;-60
2022/02/01 05:02:57;;;;;;;11.30;4.80;;;;;;;-1.63;74.88;98290.78;109131;1274;139497;-59
2022/02/01 05:05:29;;;;;;;9.60;3.80;;;;;;;-1.63;74.86;98297.60;109265;1275;22908;-57
2022/02/01 05:08:01;;;;;;;11.50;4.90;;;;;;;-1.63;74.95;98302.58;109330;1274;22535;-57
2022/02/01 05:10:32;;;;;;;13.40;5.30;;;;;;;-1.64;74.95;98305.54;109224;1274;137288;-58
2022/02/01 05:16:01;;;;;;;12.90;5.60;;;;;;;-1.65;74.91;98310.80;108920;1277;137255;-58
2022/02/01 05:18:38;;;;;;;11.30;5.10;;;;;;;-1.66;75.09;98316.13;109171;1277;22510;-59
2022/02/01 05:21:12;;;;;;;13.40;5.20;;;;;;;-1.67;75.07;98320.82;109052;1276;137061;-60
2022/02/01 05:23:40;;;;;;;15.00;5.30;;;;;;;-1.68;74.95;98326.57;109178;1276;22478;-60
2022/02/01 05:26:08;;;;;;;15.90;6.50;;;;;;;-1.70;74.95;98329.11;109126;1277;22623;-57
2022/02/01 05:28:37;;;;;;;11.50;5.30;;;;;;;-1.73;75.02;98332.52;109167;1274;137095;-58
2022/02/01 05:31:05;;;;;;;12.30;4.90;;;;;;;-1.75;75.12;98340.11;109283;1274;22411;-59
2022/02/01 05:33:34;;;;;;;16.60;5.90;;;;;;;-1.79;74.96;98346.15;109156;1274;138543;-60
2022/02/01 05:36:04;;;;;;;14.80;6.90;;;;;;;-1.83;75.07;98352.27;109272;1274;22450;-57
2022/02/01 05:38:32;;;;;;;14.50;6.30;;;;;;;-1.85;74.95;98354.48;109083;1274;137841;-57
2022/02/01 05:41:00;;;;;;;15.40;5.80;;;;;;;-1.87;75.06;98356.45;105801;1275;22675;-60
2022/02/01 05:43:29;;;;;;;16.20;5.90;;;;;;;-1.87;75.12;98361.02;109221;1276;23158;-59
2022/02/01 05:45:58;;;;;;;12.60;5.40;;;;;;;-1.89;75.44;98362.07;109149;1274;137833;-60
2022/02/01 05:48:26;;;;;;;19.70;7.30;;;;;;;-1.89;75.50;98366.70;109232;1274;22442;-60
2022/02/01 05:50:56;;;;;;;16.70;6.80;;;;;;;-1.91;75.39;98373.35;109177;1276;137082;-60
2022/02/01 05:53:25;;;;;;;14.40;6.20;;;;;;;-1.92;75.50;98373.15;109243;1274;23380;-60
2022/02/01 05:55:53;;;;;;;14.80;6.60;;;;;;;-1.92;75.63;98378.66;109237;1274;22461;-59
2022/02/01 05:58:21;;;;;;;18.80;6.20;;;;;;;-1.93;75.55;98385.63;109212;1274;137634;-60
2022/02/01 06:00:51;;;;;;;15.50;6.50;;;;;;;-1.94;75.68;98388.30;109214;1275;23896;-60
2022/02/01 06:03:20;;;;;;;17.00;5.70;;;;;;;-1.95;75.57;98394.65;109127;1276;137976;-59
2022/02/01 06:05:49;;;;;;;13.50;6.30;;;;;;;-1.98;75.65;98395.42;109132;1276;22478;-60
2022/02/01 06:08:36;;;;;;;11.50;6.40;;;;;;;-2.00;75.77;98400.40;109136;1274;138864;-58
2022/02/01 06:11:05;;;;;;;16.30;6.70;;;;;;;-2.02;75.62;98408.16;109167;1276;22487;-57
2022/02/01 06:13:36;;;;;;;19.50;7.00;;;;;;;-2.06;75.56;98403.98;109235;1274;22491;-57
2022/02/01 06:16:05;;;;;;;16.80;7.50;;;;;;;-2.06;75.73;98407.52;109116;1274;138686;-60
2022/02/01 06:18:33;;;;;;;21.60;8.50;;;;;;;-2.08;75.55;98410.75;109184;1274;22399;-60
2022/02/01 06:21:01;;;;;;;16.10;7.40;;;;;;;-2.06;75.72;98422.54;108998;1277;137741;-57
2022/02/01 06:23:30;;;;;;;18.80;9.30;;;;;;;-2.07;75.84;98425.73;109151;1274;23477;-57
2022/02/01 06:25:57;;;;;;;19.80;8.30;;;;;;;-2.09;75.96;98430.09;109197;1276;22471;-57
2022/02/01 06:28:28;;;;;;;19.90;8.30;;;;;;;-2.04;75.98;98434.94;109072;1274;137988;-57
2022/02/01 06:30:56;;;;;;;19.90;7.60;;;;;;;-2.02;76.22;98441.09;109185;1274;22394;-58
2022/02/01 06:33:24;;;;;;;19.20;8.30;;;;;;;-2.01;76.02;98438.58;109118;1274;138948;-58
2022/02/01 06:35:53;;;;;;;16.60;8.80;;;;;;;-1.99;75.87;98436.81;109198;1274;22448;-58
2022/02/01 06:38:21;;;;;;;16.90;8.10;;;;;;;-1.98;76.01;98439.48;109091;1274;138420;-58
2022/02/01 06:40:49;;;;;;;20.60;7.50;;;;;;;-1.98;76.01;98435.38;109155;1274;22447;-58
2022/02/01 06:43:17;;;;;;;14.00;6.90;;;;;;;-1.97;75.96;98440.85;109175;1274;22459;-57
2022/02/01 06:45:45;;;;;;;16.30;6.60;;;;;;;-1.97;75.98;98443.27;109092;1276;137769;-57
2022/02/01 06:48:13;;;;;;;22.20;9.20;;;;;;;-1.97;75.96;98448.12;109119;1275;23678;-57
2022/02/01 06:50:46;;;;;;;15.70;6.50;;;;;;;-1.97;75.88;98449.88;108951;1275;138655;-61
2022/02/01 06:53:14;;;;;;;14.70;6.30;;;;;;;-1.99;75.86;98448.08;109085;1276;22504;-60
2022/02/01 06:58:15;;;;;;;13.60;7.20;;;;;;;-1.95;75.86;98461.18;109055;1276;138772;-57
2022/02/01 07:00:43;;;;;;;18.20;7.20;;;;;;;-1.94;75.69;98465.29;109152;1274;22521;-57
2022/02/01 07:03:12;;;;;;;21.80;7.80;;;;;;;-1.92;75.87;98466.45;109030;1274;137998;-58
2022/02/01 07:05:40;;;;;;;20.90;8.60;;;;;;;-1.90;75.77;98469.24;109087;1274;22507;-57
2022/02/01 07:08:08;;;;;;;17.10;7.70;;;;;;;-1.89;75.69;98472.58;109141;1274;23291;-58
2022/02/01 07:10:36;;;;;;;27.00;12.00;;;;;;;-1.87;75.72;98467.39;109052;1274;140198;-58
2022/02/01 07:13:04;;;;;;;24.10;9.60;;;;;;;-1.86;75.71;98473.61;109175;1274;23422;-57
2022/02/01 07:15:32;;;;;;;20.50;9.60;;;;;;;-1.84;75.75;98480.89;109087;1273;137937;-57
2022/02/01 07:18:01;;;;;;;24.30;9.90;;;;;;;-1.85;75.65;98479.13;109158;1274;22362;-58
2022/02/01 07:20:31;;;;;;;19.80;9.10;;;;;;;-1.83;75.47;98479.26;109084;1274;139911;-57
2022/02/01 07:22:59;;;;;;;20.60;9.80;;;;;;;-1.81;75.56;98475.32;109188;1274;22410;-57
2022/02/01 07:25:32;;;;;;;21.10;9.70;;;;;;;-1.81;75.48;98477.90;109166;1274;22473;-58
2022/02/01 07:28:01;;;;;;;20.10;9.00;;;;;;;-1.80;75.38;98477.36;109061;1274;138185;-58
2022/02/01 07:30:29;;;;;;;24.30;10.00;;;;;;;-1.81;75.38;98471.17;109215;1274;22438;-60
2022/02/01 07:33:00;;;;;;;24.10;9.30;;;;;;;-1.79;75.38;98474.09;108994;1274;139689;-57
2022/02/01 07:35:30;;;;;;;21.90;9.60;;;;;;;-1.77;75.12;98475.32;109124;1274;23255;-57
2022/02/01 07:38:00;;;;;;;18.60;8.20;;;;;;;-1.75;75.25;98476.81;109165;1274;22453;-57
2022/02/01 07:40:28;;;;;;;23.80;8.20;;;;;;;-1.74;75.33;98476.92;109088;1274;138502;-58
2022/02/01 07:42:56;;;;;;;22.50;8.40;;;;;;;-1.69;75.16;98478.68;109145;1274;22433;-60
2022/02/01 07:45:28;;;;;;;24.40;9.60;;;;;;;-1.66;75.21;98485.60;108913;1276;137789;-57
2022/02/01 07:47:57;;;;;;;21.40;9.00;;;;;;;-1.63;75.30;98488.52;109154;1274;23286;-58
2022/02/01 07:50:26;;;;;;;24.20;11.40;;;;;;;-1.60;75.18;98490.33;108942;1274;138575;-58
2022/02/01 07:52:55;;;;;;;25.50;13.70;;;;;;;-1.57;75.12;98492.77;109135;1274;22521;-58
2022/02/01 07:55:23;;;;;;;19.50;9.40;;;;;;;-1.55;74.96;98493.92;109227;1274;23264;-58
2022/02/01 07:57:53;;;;;;;21.80;8.50;;;;;;;-1.53;74.88;98498.45;108990;1276;138871;-57
2022/02/01 08:00:21;;;;;;;18.30;8.30;;;;;;;-1.51;74.88;98502.73;109192;1274;22719;-58
2022/02/01 08:02:57;;;;;;;19.00;10.00;;;;;;;-1.50;74.76;98506.55;109171;1274;140138;-58
2022/02/01 08:05:29;;;;;;;18.60;8.90;;;;;;;-1.49;74.69;98511.45;109247;1274;22502;-58
2022/02/01 08:07:59;;;;;;;17.80;8.40;;;;;;;-1.48;74.47;98512.84;109192;1274;22482;-58
2022/02/01 08:10:34;;;;;;;27.50;10.00;;;;;;;-1.47;74.43;98514.16;109088;1276;138098;-58
2022/02/01 08:18:44;;;;;;;17.70;7.60;;;;;;;-1.36;74.51;98521.27;109222;1276;22564;-59
2022/02/01 08:21:22;;;;;;;25.70;9.20;;;;;;;-1.33;74.32;98526.11;109096;1276;139292;-59
2022/02/01 08:23:49;;;;;;;22.40;9.60;;;;;;;-1.30;74.16;98524.30;109201;1274;23403;-59
2022/02/01 08:26:18;;;;;;;16.40;9.10;;;;;;;-1.27;74.20;98521.52;109056;1274;137944;-59
2022/02/01 08:28:48;;;;;;;20.90;9.30;;;;;;;-1.23;74.05;98522.44;109252;1274;23715;-59
2022/02/01 08:31:36;;;;;;;;;;;;;;;-1.19;74.25;98529.77;109282;1274;22479;-59
2022/02/01 08:34:04;;;;;;;;;;;;;;;-1.17;74.10;98527.34;109155;1274;123701;-59
2022/02/01 08:36:32;;;;;;;20.20;8.70;;;;;;;-1.14;73.92;98528.92;109214;1274;22463;-59
2022/02/01 08:39:00;;;;;;;23.70;9.50;;;;;;;-1.13;73.81;98528.63;109129;1276;139295;-58
2022/02/01 08:41:28;;;;;;;19.70;9.70;;;;;;;-1.12;73.74;98535.25;109240;1274;22455;-58
2022/02/01 08:43:56;;;;;;;44.20;14.10;;;;;;;-1.14;73.50;98530.20;109274;1274;24752;-58
2022/02/01 08:46:24;;;;;;;21.20;9.60;;;;;;;-1.12;73.35;98536.61;109188;1274;138078;-58
2022/02/01 08:48:52;;;;;;;31.90;11.20;;;;;;;-1.12;73.31;98541.66;109259;1274;22505;-58
2022/02/01 08:51:23;;;;;;;22.10;10.40;;;;;;;-1.12;73.51;98542.29;109110;1274;138122;-59
2022/02/01 08:53:57;;;;;;;20.50;9.20;;;;;;;-1.11;73.47;98543.77;109265;1274;22446;-58
2022/02/01 08:59:29;;;;;;;21.20;8.30;;;;;;;-1.08;73.28;98547.27;109252;1274;22467;-58
2022/02/01 09:01:57;;;;;;;22.00;9.80;;;;;;;-1.04;73.26;98549.89;109147;1274;22450;-58
2022/02/01 09:04:25;;;;;;;24.50;9.80;;;;;;;-1.01;73.17;98550.75;109127;1275;138918;-58
2022/02/01 09:06:53;;;;;;;20.50;7.50;;;;;;;-0.97;73.21;98550.16;109230;1274;23158;-58
2022/02/01 09:09:30;;;;;;;21.10;8.90;;;;;;;-0.93;73.41;98548.02;109175;1274;138306;-58
2022/02/01 09:11:58;;;;;;;22.60;8.90;;;;;;;-0.90;73.05;98542.48;109208;1274;22297;-58
2022/02/01 09:14:27;;;;;;;25.90;11.10;;;;;;;-0.88;72.64;98550.00;109086;1274;137398;-58
2022/02/01 09:16:56;;;;;;;18.90;8.80;;;;;;;-0.86;72.88;98550.60;109122;1274;22468;-58
2022/02/01 09:19:24;;;;;;;23.00;10.60;;;;;;;-0.84;72.69;98551.73;109214;1274;23512;-58
2022/02/01 09:21:52;;;;;;;21.80;9.30;;;;;;;-0.82;72.74;98550.59;109028;1275;137569;-58
2022/02/01 09:24:20;;;;;;;41.20;16.00;;;;;;;-0.82;72.58;98549.77;109181;1274;22559;-58
2022/02/01 09:26:49;;;;;;;21.10;9.70;;;;;;;-0.80;72.71;98539.03;109094;1275;139170;-58
2022/02/01 09:29:19;;;;;;;28.60;12.10;;;;;;;-0.78;72.46;98542.73;109153;1274;22450;-57
2022/02/01 09:31:48;;;;;;;25.60;10.00;;;;;;;-0.75;72.48;98542.28;109175;1274;22466;-58
2022/02/01 09:34:16;;;;;;;24.00;9.90;;;;;;;-0.71;72.54;98540.80;109132;1276;140356;-58
2022/02/01 09:36:48;;;;;;;43.30;15.30;;;;;;;-0.66;72.27;98536.85;109171;1274;23424;-58
2022/02/01 09:39:17;;;;;;;39.50;14.60;;;;;;;-0.65;72.14;98539.81;109064;1276;138269;-58
2022/02/01 09:41:45;;;;;;;28.70;11.60;;;;;;;-0.64;72.08;98535.77;109192;1275;22521;-58
2022/02/01 09:44:13;;;;;;;25.30;11.70;;;;;;;-0.63;72.14;98525.53;109168;1274;137924;-58
2022/02/01 09:46:42;;;;;;;22.00;9.80;;;;;;;-0.58;72.26;98529.84;109301;1274;22465;-58
2022/02/01 09:49:11;;;;;;;22.90;10.30;;;;;;;-0.55;72.24;98524.55;109275;1274;22688;-58
2022/02/01 09:51:39;;;;;;;22.50;10.50;;;;;;;-0.51;72.25;98524.54;109122;1274;139087;-58
2022/02/01 09:54:21;;;;;;;20.90;9.00;;;;;;;-0.47;72.03;98522.02;109185;1274;22484;-58
2022/02/01 09:56:50;;;;;;;21.10;8.50;;;;;;;-0.45;71.77;98526.30;109136;1274;137931;-58
2022/02/01 09:59:21;;;;;;;25.20;10.90;;;;;;;-0.44;71.75;98528.84;109227;1274;22473;-58
2022/02/01 10:01:55;;;;;;;21.60;9.60;;;;;;;-0.42;71.76;98526.52;109196;1274;22410;-57
2022/02/01 10:04:28;;;;;;;39.00;13.70;;;;;;;-0.41;71.55;98529.30;109094;1274;137627;-58
2022/02/01 10:07:10;;;;;;;27.70;11.70;;;;;;;-0.40;71.88;98530.58;109151;1274;22474;-58
2022/02/01 10:09:59;;;;;;;26.00;10.10;;;;;;;-0.38;71.39;98537.24;109085;1274;140412;-58
2022/02/01 10:12:36;;;;;;;19.70;8.60;;;;;;;-0.37;71.57;98537.70;109143;1274;22450;-58
2022/02/01 10:15:12;;;;;;;23.30;10.30;;;;;;;-0.34;71.25;98538.69;109064;1274;139207;-58
2022/02/01 10:20:14;;;;;;;23.20;9.20;;;;;;;-0.30;71.23;98540.15;109062;1274;139109;-59
2022/02/01 10:22:42;;;;;;;16.60;7.10;;;;;;;-0.28;71.22;98539.51;109040;1275;23279;-58
2022/02/01 10:25:19;;;;;;;23.90;10.60;;;;;;;-0.26;71.39;98544.64;109124;1274;22503;-58
2022/02/01 10:28:00;;;;;;;19.70;8.30;;;;;;;-0.24;71.05;98543.33;109065;1274;138544;-58
2022/02/01 10:30:49;;;;;;;26.80;11.40;;;;;;;-0.23;70.82;98541.22;109062;1276;22501;-58
2022/02/01 10:36:13;;;;;;;18.40;8.30;;;;;;;-0.22;70.72;98537.67;109161;1274;22570;-58
2022/02/01 10:38:41;;;;;;;25.80;10.20;;;;;;;-0.21;70.63;98541.30;109050;1274;140928;-58
2022/02/01 10:41:13;;;;;;;21.10;8.10;;;;;;;-0.22;70.67;98546.23;109122;1276;23472;-63
2022/02/01 10:43:41;;;;;;;18.00;9.50;;;;;;;-0.23;70.55;98545.84;109201;1276;23024;-63
2022/02/01 10:46:12;;;;;;;18.90;8.20;;;;;;;-0.23;70.63;98543.90;109107;1276;137915;-63
2022/02/01 10:48:52;;;;;;;16.70;9.30;;;;;;;-0.25;69.96;98541.68;109252;1275;22479;-63
2022/02/01 10:51:24;;;;;;;20.40;9.40;;;;;;;-0.30;70.26;98541.37;109054;1276;138273;-63
2022/02/01 10:53:54;;;;;;;24.00;9.60;;;;;;;-0.29;70.05;98553.28;109289;1274;22429;-62
2022/02/01 10:56:23;;;;;;;15.10;8.00;;;;;;;-0.31;69.98;98556.09;109118;1274;138894;-63
2022/02/01 10:58:52;;;;;;;18.80;9.60;;;;;;;-0.29;70.38;98555.83;109211;1274;22498;-63
2022/02/01 11:01:21;;;;;;;19.40;7.70;;;;;;;-0.26;70.48;98559.42;109250;1274;22468;-63
2022/02/01 11:03:50;;;;;;;14.10;7.20;;;;;;;-0.21;70.58;98556.95;109088;1277;138710;-63
2022/02/01 11:06:18;;;;;;;13.50;6.50;;;;;;;-0.19;70.00;98552.54;109182;1277;22470;-63
2022/02/01 11:08:46;;;;;;;19.40;7.30;;;;;;;-0.14;69.74;98547.77;109092;1277;137403;-63
2022/02/01 11:11:21;;;;;;;27.00;11.80;;;;;;;-0.12;69.55;98549.11;109195;1274;22537;-63
2022/02/01 11:13:50;;;;;;;15.00;7.80;;;;;;;-0.13;69.25;98546.39;109200;1274;22511;-63
2022/02/01 11:16:26;;;;;;;15.30;8.00;;;;;;;-0.14;69.07;98545.20;108980;1276;138994;-63
2022/02/01 11:18:56;;;;;;;22.50;8.70;;;;;;;-0.14;69.10;98550.55;109257;1276;23328;-64
2022/02/01 11:21:24;;;;;;;24.10;11.10;;;;;;;-0.13;68.89;98550.14;109050;1274;138596;-64
2022/02/01 11:23:58;;;;;;;26.10;10.00;;;;;;;-0.14;68.60;98551.84;109070;1277;23221;-64
2022/02/01 11:26:39;;;;;;;17.30;9.00;;;;;;;-0.14;68.73;98556.13;109015;1274;139203;-63
2022/02/01 11:32:02;;;;;;;20.10;9.40;;;;;;;-0.13;69.10;98548.95;108903;1274;22591;-63
2022/02/01 11:35:03;;;;;;;17.90;8.70;;;;;;;-0.10;69.30;98543.38;109083;1274;139623;-63
2022/02/01 11:37:32;;;;;;;23.50;7.90;;;;;;;-0.07;69.27;98542.02;109134;1274;23325;-64
2022/02/01 11:40:00;;;;;;;14.60;7.50;;;;;;;-0.06;69.07;98541.27;109070;1274;138417;-58
2022/02/01 11:42:31;;;;;;;23.40;8.70;;;;;;;-0.06;68.86;98542.63;109199;1274;22566;-58
2022/02/01 11:45:08;;;;;;;18.00;8.40;;;;;;;-0.08;68.81;98541.37;109055;1274;139394;-58
2022/02/01 11:47:43;;;;;;;17.30;8.30;;;;;;;-0.07;68.37;98547.04;109190;1274;22508;-58
2022/02/01 11:50:12;;;;;;;18.70;7.50;;;;;;;-0.09;68.79;98542.30;109177;1274;23688;-58
2022/02/01 11:52:45;;;;;;;15.10;6.50;;;;;;;-0.08;68.68;98539.54;109118;1274;138114;-58
2022/02/01 11:55:13;;;;;;;13.60;6.40;;;;;;;-0.06;68.30;98537.56;109198;1274;22528;-58
2022/02/01 11:58:03;;;;;;;19.00;8.40;;;;;;;-0.06;67.66;98533.20;109070;1274;138090;-58
2022/02/01 12:00:38;;;;;;;14.50;7.20;;;;;;;-0.05;67.80;98528.66;109279;1274;22545;-58
2022/02/01 12:03:08;;;;;;;20.10;8.60;;;;;;;-0.03;67.99;98531.79;109191;1273;137768;-58
2022/02/01 12:05:38;;;;;;;14.30;7.40;;;;;;;0.00;67.70;98529.86;109268;1274;22411;-58
2022/02/01 12:08:17;;;;;;;16.40;7.70;;;;;;;0.04;67.80;98529.02;109297;1274;22442;-58
2022/02/01 12:10:49;;;;;;;18.80;9.50;;;;;;;0.07;67.84;98528.35;109165;1274;137004;-58
2022/02/01 12:13:22;;;;;;;20.20;9.50;;;;;;;0.07;67.73;98524.10;109384;1274;22411;-57
2022/02/01 12:15:54;;;;;;;14.10;8.00;;;;;;;0.12;67.30;98531.13;109222;1274;137953;-58
2022/02/01 12:18:33;;;;;;;13.20;6.70;;;;;;;0.14;67.23;98532.27;109254;1274;22765;-58
2022/02/01 12:21:12;;;;;;;13.50;6.30;;;;;;;0.16;67.29;98533.92;109168;1274;139195;-58
2022/02/01 12:23:47;;;;;;;21.30;9.30;;;;;;;0.17;67.03;98528.89;109183;1275;22574;-58
2022/02/01 12:26:28;;;;;;;12.50;6.20;;;;;;;0.21;67.19;98529.23;109348;1274;22540;-58
2022/02/01 12:28:57;;;;;;;11.90;6.10;;;;;;;0.24;66.78;98535.37;109184;1274;137924;-58
2022/02/01 12:31:27;;;;;;;11.40;6.20;;;;;;;0.26;66.49;98535.15;109365;1274;23364;-58
2022/02/01 12:33:58;;;;;;;10.90;6.30;;;;;;;0.23;65.54;98529.70;109182;1274;137442;-58
2022/02/01 12:36:45;;;;;;;16.60;7.50;;;;;;;0.22;65.29;98538.59;109275;1274;23546;-58
2022/02/01 12:39:28;;;;;;;12.40;6.60;;;;;;;0.18;65.11;98537.17;109172;1274;137274;-58
2022/02/01 12:42:14;;;;;;;13.50;6.40;;;;;;;0.20;64.91;98541.77;109166;1276;22868;-57
2022/02/01 12:47:17;;;;;;;12.40;5.50;;;;;;;0.17;63.98;98548.38;109258;1274;22535;-58
2022/02/01 12:50:05;;;;;;;13.80;5.90;;;;;;;0.13;63.91;98545.95;109255;1276;22448;-58
2022/02/01 12:52:34;;;;;;;12.10;5.90;;;;;;;0.10;63.73;98548.69;109114;1274;137855;-58
2022/02/01 12:55:07;;;;;;;11.80;5.10;;;;;;;0.07;64.11;98545.64;109230;1274;22448;-58
2022/02/01 12:57:57;;;;;;;14.80;6.20;;;;;;;0.03;63.68;98542.44;109143;1274;138782;-58
2022/02/01 13:00:25;;;;;;;16.10;7.50;;;;;;;-0.01;63.38;98547.02;109151;1274;22410;-58
2022/02/01 13:02:55;;;;;;;16.30;7.00;;;;;;;-0.05;63.61;98544.64;109141;1274;137497;-58
2022/02/01 13:05:23;;;;;;;11.90;6.30;;;;;;;-0.09;63.80;98545.72;109258;1274;23148;-58